sensor_id;sensor_type;location;lat;lon;timestamp;pressure;altitude;pressure_sealevel;temperature;humidity
47785;BME280;35233;55.686;37.848;2022-09-21T00:01:05;99752.00;;;15.60;58.51
47785;BME280;35233;55.686;37.848;2022-09-21T00:03:32;99753.03;;;15.58;58.29
47785;BME280;35233;55.686;37.848;2022-09-21T00:06:02;99766.41;;;15.56;58.39
47785;BME280;35233;55.686;37.848;2022-09-21T00:08:27;99765.75;;;15.51;58.46
47785;BME280;35233;55.686;37.848;2022-09-21T00:10:53;99768.34;;;15.53;58.54
47785;BME280;35233;55.686;37.848;2022-09-21T00:13:18;99765.69;;;15.53;58.49
47785;BME280;35233;55.686;37.848;2022-09-21T00:15:45;99759.59;;;15.51;58.34
47785;BME280;35233;55.686;37.848;2022-09-21T00:18:10;99758.78;;;15.49;58.16
47785;BME280;35233;55.686;37.848;2022-09-21T00:20:36;99760.44;;;15.51;58.23
47785;BME280;35233;55.686;37.848;2022-09-21T00:23:05;99757.13;;;15.46;58.37
47785;BME280;35233;55.686;37.848;2022-09-21T00:25:30;99758.97;;;15.44;58.38
47785;BME280;35233;55.686;37.848;2022-09-21T00:27:56;99766.19;;;15.42;58.34
47785;BME280;35233;55.686;37.848;2022-09-21T00:30:21;99764.59;;;15.38;58.53
47785;BME280;35233;55.686;37.848;2022-09-21T00:32:46;99766.13;;;15.44;58.25
47785;BME280;35233;55.686;37.848;2022-09-21T00:35:12;99770.63;;;15.42;58.38
47785;BME280;35233;55.686;37.848;2022-09-21T00:37:37;99761.88;;;15.39;58.06
47785;BME280;35233;55.686;37.848;2022-09-21T00:40:03;99758.56;;;15.34;58.28
47785;BME280;35233;55.686;37.848;2022-09-21T00:42:31;99770.88;;;15.37;58.25
47785;BME280;35233;55.686;37.848;2022-09-21T00:44:57;99769.25;;;15.33;58.36
47785;BME280;35233;55.686;37.848;2022-09-21T00:47:33;99770.19;;;15.32;58.34
47785;BME280;35233;55.686;37.848;2022-09-21T00:50:03;99762.22;;;15.32;58.50
47785;BME280;35233;55.686;37.848;2022-09-21T00:52:33;99769.50;;;15.28;58.38
47785;BME280;35233;55.686;37.848;2022-09-21T00:55:24;99759.84;;;15.26;58.09
47785;BME280;35233;55.686;37.848;2022-09-21T00:57:52;99760.69;;;15.26;58.13
47785;BME280;35233;55.686;37.848;2022-09-21T01:00:18;99764.22;;;15.27;58.00
47785;BME280;35233;55.686;37.848;2022-09-21T01:02:44;99757.28;;;15.24;58.03
47785;BME280;35233;55.686;37.848;2022-09-21T01:05:10;99757.28;;;15.24;58.03
47785;BME280;35233;55.686;37.848;2022-09-21T01:07:38;99758.41;;;15.19;58.12
47785;BME280;35233;55.686;37.848;2022-09-21T01:10:08;99736.13;;;15.01;57.94
47785;BME280;35233;55.686;37.848;2022-09-21T01:12:45;99762.69;;;15.21;57.79
47785;BME280;35233;55.686;37.848;2022-09-21T01:15:27;99750.63;;;15.14;57.97
47785;BME280;35233;55.686;37.848;2022-09-21T01:26:23;99770.34;;;15.10;57.93
47785;BME280;35233;55.686;37.848;2022-09-21T01:31:52;99761.41;;;15.11;57.87
47785;BME280;35233;55.686;37.848;2022-09-21T01:34:52;99765.88;;;15.10;57.75
47785;BME280;35233;55.686;37.848;2022-09-21T01:37:25;99764.34;;;15.05;57.52
47785;BME280;35233;55.686;37.848;2022-09-21T01:39:56;99761.69;;;15.05;57.57
47785;BME280;35233;55.686;37.848;2022-09-21T01:42:25;99759.94;;;15.04;57.44
47785;BME280;35233;55.686;37.848;2022-09-21T01:44:54;99764.41;;;15.03;57.68
47785;BME280;35233;55.686;37.848;2022-09-21T01:47:22;99756.66;;;14.99;57.65
47785;BME280;35233;55.686;37.848;2022-09-21T01:49:53;99768.06;;;15.01;57.57
47785;BME280;35233;55.686;37.848;2022-09-21T01:52:25;99762.09;;;14.96;57.61
47785;BME280;35233;55.686;37.848;2022-09-21T01:54:58;99767.34;;;14.97;57.60
47785;BME280;35233;55.686;37.848;2022-09-21T02:00:23;99761.50;;;14.89;57.86
47785;BME280;35233;55.686;37.848;2022-09-21T02:02:56;99769.34;;;14.92;57.61
47785;BME280;35233;55.686;37.848;2022-09-21T02:05:27;99766.81;;;14.89;57.68
47785;BME280;35233;55.686;37.848;2022-09-21T02:07:54;99771.94;;;14.93;57.38
47785;BME280;35233;55.686;37.848;2022-09-21T02:10:44;99770.22;;;14.92;57.65
47785;BME280;35233;55.686;37.848;2022-09-21T02:13:10;99770.34;;;14.89;57.61
47785;BME280;35233;55.686;37.848;2022-09-21T02:18:57;99769.41;;;14.90;57.33
47785;BME280;35233;55.686;37.848;2022-09-21T02:24:43;99777.72;;;14.83;57.50
47785;BME280;35233;55.686;37.848;2022-09-21T02:27:44;99776.06;;;14.80;57.48
47785;BME280;35233;55.686;37.848;2022-09-21T02:36:09;99777.00;;;14.79;57.39
47785;BME280;35233;55.686;37.848;2022-09-21T02:40:55;99777.09;;;14.78;57.25
47785;BME280;35233;55.686;37.848;2022-09-21T02:45:59;99789.50;;;14.77;57.32
47785;BME280;35233;55.686;37.848;2022-09-21T02:48:42;99778.97;;;14.74;57.47
47785;BME280;35233;55.686;37.848;2022-09-21T02:51:13;99788.63;;;14.77;57.53
47785;BME280;35233;55.686;37.848;2022-09-21T02:53:42;99781.72;;;14.73;57.27
47785;BME280;35233;55.686;37.848;2022-09-21T02:56:09;99777.19;;;14.75;57.49
47785;BME280;35233;55.686;37.848;2022-09-21T02:58:43;99779.06;;;14.73;57.72
47785;BME280;35233;55.686;37.848;2022-09-21T03:01:10;99771.22;;;14.69;57.70
47785;BME280;35233;55.686;37.848;2022-09-21T03:03:37;99765.09;;;14.67;57.37
47785;BME280;35233;55.686;37.848;2022-09-21T03:06:02;99772.00;;;14.71;57.46
47785;BME280;35233;55.686;37.848;2022-09-21T03:08:28;99775.69;;;14.69;57.62
47785;BME280;35233;55.686;37.848;2022-09-21T03:10:54;99762.44;;;14.67;57.37
47785;BME280;35233;55.686;37.848;2022-09-21T03:13:22;99775.59;;;14.70;57.44
47785;BME280;35233;55.686;37.848;2022-09-21T03:15:47;99778.34;;;14.69;57.40
47785;BME280;35233;55.686;37.848;2022-09-21T03:18:13;99769.44;;;14.70;57.30
47785;BME280;35233;55.686;37.848;2022-09-21T03:20:42;99778.22;;;14.72;57.59
47785;BME280;35233;55.686;37.848;2022-09-21T03:23:11;99775.69;;;14.69;57.84
47785;BME280;35233;55.686;37.848;2022-09-21T03:25:37;99776.53;;;14.69;57.54
47785;BME280;35233;55.686;37.848;2022-09-21T03:28:03;99776.53;;;14.69;57.35
47785;BME280;35233;55.686;37.848;2022-09-21T03:30:28;99774.75;;;14.70;57.54
47785;BME280;35233;55.686;37.848;2022-09-21T03:32:55;99772.13;;;14.68;57.40
47785;BME280;35233;55.686;37.848;2022-09-21T03:35:21;99770.22;;;14.72;57.54
47785;BME280;35233;55.686;37.848;2022-09-21T03:37:48;99771.16;;;14.71;57.50
47785;BME280;35233;55.686;37.848;2022-09-21T03:40:15;99769.28;;;14.73;57.30
47785;BME280;35233;55.686;37.848;2022-09-21T03:42:41;99776.19;;;14.77;57.51
47785;BME280;35233;55.686;37.848;2022-09-21T03:45:08;99770.88;;;14.77;57.23
47785;BME280;35233;55.686;37.848;2022-09-21T03:47:35;99770.88;;;14.77;57.41
47785;BME280;35233;55.686;37.848;2022-09-21T03:50:01;99765.56;;;14.77;57.33
47785;BME280;35233;55.686;37.848;2022-09-21T03:52:26;99766.31;;;14.81;57.41
47785;BME280;35233;55.686;37.848;2022-09-21T03:54:52;99765.50;;;14.79;57.37
47785;BME280;35233;55.686;37.848;2022-09-21T03:57:19;99758.34;;;14.81;57.20
47785;BME280;35233;55.686;37.848;2022-09-21T03:59:44;99762.38;;;14.89;57.30
47785;BME280;35233;55.686;37.848;2022-09-21T04:02:10;99755.31;;;14.88;57.26
47785;BME280;35233;55.686;37.848;2022-09-21T04:04:35;99766.75;;;14.90;57.18
47785;BME280;35233;55.686;37.848;2022-09-21T04:07:01;99771.00;;;14.94;57.10
47785;BME280;35233;55.686;37.848;2022-09-21T04:09:27;99762.09;;;14.96;56.96
47785;BME280;35233;55.686;37.848;2022-09-21T04:11:52;99776.94;;;15.01;57.05
47785;BME280;35233;55.686;37.848;2022-09-21T04:14:19;99778.66;;;15.02;57.00
47785;BME280;35233;55.686;37.848;2022-09-21T04:16:45;99769.72;;;15.03;56.98
47785;BME280;35233;55.686;37.848;2022-09-21T04:19:11;99778.38;;;15.08;56.94
47785;BME280;35233;55.686;37.848;2022-09-21T04:21:36;99775.72;;;15.08;56.93
47785;BME280;35233;55.686;37.848;2022-09-21T04:24:02;99778.19;;;15.13;56.98
47785;BME280;35233;55.686;37.848;2022-09-21T04:26:30;99777.19;;;15.15;56.98
47785;BME280;35233;55.686;37.848;2022-09-21T04:28:57;99779.91;;;15.14;57.06
47785;BME280;35233;55.686;37.848;2022-09-21T04:31:24;99777.09;;;15.17;56.95
47785;BME280;35233;55.686;37.848;2022-09-21T04:33:51;99779.75;;;15.17;57.14
47785;BME280;35233;55.686;37.848;2022-09-21T04:36:17;99773.63;;;15.15;57.14
47785;BME280;35233;55.686;37.848;2022-09-21T04:38:43;99780.56;;;15.19;56.78
47785;BME280;35233;55.686;37.848;2022-09-21T04:41:09;99777.63;;;15.25;56.96
47785;BME280;35233;55.686;37.848;2022-09-21T04:43:35;99781.13;;;15.26;57.00
47785;BME280;35233;55.686;37.848;2022-09-21T04:46:06;99781.81;;;15.31;57.15
47785;BME280;35233;55.686;37.848;2022-09-21T04:48:31;99779.84;;;15.34;57.11
47785;BME280;35233;55.686;37.848;2022-09-21T04:50:57;99785.97;;;15.36;57.07
47785;BME280;35233;55.686;37.848;2022-09-21T04:53:22;99790.22;;;15.40;57.11
47785;BME280;35233;55.686;37.848;2022-09-21T04:55:48;99785.59;;;15.44;57.07
47785;BME280;35233;55.686;37.848;2022-09-21T04:58:13;99788.06;;;15.49;56.95
47785;BME280;35233;55.686;37.848;2022-09-21T05:00:39;99785.31;;;15.50;56.96
47785;BME280;35233;55.686;37.848;2022-09-21T05:03:04;99785.97;;;15.55;57.06
47785;BME280;35233;55.686;37.848;2022-09-21T05:05:29;99779.50;;;15.61;56.80
47785;BME280;35233;55.686;37.848;2022-09-21T05:07:57;99786.94;;;15.73;56.58
47785;BME280;35233;55.686;37.848;2022-09-21T05:10:23;99789.91;;;15.86;56.36
47785;BME280;35233;55.686;37.848;2022-09-21T05:12:49;99781.47;;;15.95;56.24
47785;BME280;35233;55.686;37.848;2022-09-21T05:15:15;99775.13;;;15.98;55.85
47785;BME280;35233;55.686;37.848;2022-09-21T05:17:41;99783.69;;;16.04;56.02
47785;BME280;35233;55.686;37.848;2022-09-21T05:20:07;99786.91;;;16.11;55.79
47785;BME280;35233;55.686;37.848;2022-09-21T05:22:33;99776.31;;;16.10;55.49
47785;BME280;35233;55.686;37.848;2022-09-21T05:24:58;99775.31;;;16.12;55.71
47785;BME280;35233;55.686;37.848;2022-09-21T05:27:24;99781.00;;;16.23;55.42
47785;BME280;35233;55.686;37.848;2022-09-21T05:29:49;99787.38;;;16.19;55.67
47785;BME280;35233;55.686;37.848;2022-09-21T05:35:34;99782.56;;;16.27;55.79
47785;BME280;35233;55.686;37.848;2022-09-21T05:38:12;99790.09;;;16.37;55.55
47785;BME280;35233;55.686;37.848;2022-09-21T05:40:41;99782.78;;;16.40;55.45
47785;BME280;35233;55.686;37.848;2022-09-21T05:43:08;99778.72;;;16.50;55.23
47785;BME280;35233;55.686;37.848;2022-09-21T05:45:36;99747.75;;;16.48;55.12
47785;BME280;35233;55.686;37.848;2022-09-21T05:48:22;99767.91;;;16.71;54.91
47785;BME280;35233;55.686;37.848;2022-09-21T05:51:02;99776.94;;;16.86;54.68
47785;BME280;35233;55.686;37.848;2022-09-21T05:56:00;99773.16;;;16.90;54.50
47785;BME280;35233;55.686;37.848;2022-09-21T06:03:45;99768.13;;;17.01;54.59
47785;BME280;35233;55.686;37.848;2022-09-21T06:06:18;99770.56;;;17.06;54.40
47785;BME280;35233;55.686;37.848;2022-09-21T06:08:44;99768.53;;;17.11;54.21
47785;BME280;35233;55.686;37.848;2022-09-21T06:11:10;99773.13;;;17.07;54.51
47785;BME280;35233;55.686;37.848;2022-09-21T06:13:36;99767.91;;;17.06;54.60
47785;BME280;35233;55.686;37.848;2022-09-21T06:16:02;99767.97;;;17.04;54.47
47785;BME280;35233;55.686;37.848;2022-09-21T06:18:28;99764.53;;;17.02;54.70
47785;BME280;35233;55.686;37.848;2022-09-21T06:20:54;99771.06;;;16.96;54.86
47785;BME280;35233;55.686;37.848;2022-09-21T06:23:19;99772.94;;;16.94;55.05
47785;BME280;35233;55.686;37.848;2022-09-21T06:25:52;99770.66;;;16.87;55.04
47785;BME280;35233;55.686;37.848;2022-09-21T06:28:18;99772.25;;;16.91;55.18
47785;BME280;35233;55.686;37.848;2022-09-21T06:30:50;99774.81;;;16.92;55.18
47785;BME280;35233;55.686;37.848;2022-09-21T06:33:15;99776.94;;;16.86;55.44
47785;BME280;35233;55.686;37.848;2022-09-21T06:35:53;99778.34;;;16.75;55.69
47785;BME280;35233;55.686;37.848;2022-09-21T06:38:19;99775.97;;;16.69;55.85
47785;BME280;35233;55.686;37.848;2022-09-21T06:40:45;99776.13;;;16.66;56.12
47785;BME280;35233;55.686;37.848;2022-09-21T06:43:10;99780.72;;;16.64;56.18
47785;BME280;35233;55.686;37.848;2022-09-21T06:45:36;99785.09;;;16.65;56.24
47785;BME280;35233;55.686;37.848;2022-09-21T06:48:01;99782.25;;;16.68;56.34
47785;BME280;35233;55.686;37.848;2022-09-21T06:50:27;99789.25;;;16.71;56.23
47785;BME280;35233;55.686;37.848;2022-09-21T06:52:53;99796.75;;;16.82;56.04
47785;BME280;35233;55.686;37.848;2022-09-21T06:55:18;99791.63;;;16.94;55.73
47785;BME280;35233;55.686;37.848;2022-09-21T06:57:44;99786.06;;;16.99;55.66
47785;BME280;35233;55.686;37.848;2022-09-21T07:00:11;99791.59;;;17.12;55.23
47785;BME280;35233;55.686;37.848;2022-09-21T07:02:37;99790.41;;;17.17;55.38
47785;BME280;35233;55.686;37.848;2022-09-21T07:05:06;99791.19;;;17.19;55.44
47785;BME280;35233;55.686;37.848;2022-09-21T07:07:32;99796.19;;;17.26;55.19
47785;BME280;35233;55.686;37.848;2022-09-21T07:09:58;99788.81;;;17.31;55.16
47785;BME280;35233;55.686;37.848;2022-09-21T07:12:27;99796.00;;;17.46;54.83
47785;BME280;35233;55.686;37.848;2022-09-21T07:14:52;99790.53;;;17.48;54.81
47785;BME280;35233;55.686;37.848;2022-09-21T07:17:18;99791.84;;;17.56;54.74
47785;BME280;35233;55.686;37.848;2022-09-21T07:19:44;99790.03;;;17.57;54.86
47785;BME280;35233;55.686;37.848;2022-09-21T07:22:09;99785.47;;;17.59;54.80
47785;BME280;35233;55.686;37.848;2022-09-21T07:24:35;99778.69;;;17.69;54.62
47785;BME280;35233;55.686;37.848;2022-09-21T07:27:00;99779.38;;;17.73;54.42
47785;BME280;35233;55.686;37.848;2022-09-21T07:29:26;99762.31;;;17.75;54.57
47785;BME280;35233;55.686;37.848;2022-09-21T07:31:51;99781.19;;;17.72;54.63
47785;BME280;35233;55.686;37.848;2022-09-21T07:34:17;99771.44;;;17.71;54.62
47785;BME280;35233;55.686;37.848;2022-09-21T07:36:42;99776.88;;;17.70;54.61
47785;BME280;35233;55.686;37.848;2022-09-21T07:39:08;99777.84;;;17.69;54.85
47785;BME280;35233;55.686;37.848;2022-09-21T07:41:34;99783.31;;;17.65;54.81
47785;BME280;35233;55.686;37.848;2022-09-21T07:44:00;99778.94;;;17.64;55.04
47785;BME280;35233;55.686;37.848;2022-09-21T07:46:26;99777.91;;;17.67;54.99
47785;BME280;35233;55.686;37.848;2022-09-21T07:48:53;99785.50;;;17.75;54.84
47785;BME280;35233;55.686;37.848;2022-09-21T07:51:19;99776.59;;;17.74;54.82
47785;BME280;35233;55.686;37.848;2022-09-21T07:53:44;99777.88;;;17.84;54.73
47785;BME280;35233;55.686;37.848;2022-09-21T07:56:13;99782.78;;;17.92;54.72
47785;BME280;35233;55.686;37.848;2022-09-21T07:58:39;99785.72;;;17.87;54.63
47785;BME280;35233;55.686;37.848;2022-09-21T08:01:24;99782.63;;;17.95;54.61
47785;BME280;35233;55.686;37.848;2022-09-21T08:03:51;99778.19;;;17.94;54.61
47785;BME280;35233;55.686;37.848;2022-09-21T08:06:18;99774.78;;;17.92;54.72
47785;BME280;35233;55.686;37.848;2022-09-21T08:08:44;99776.56;;;17.92;54.74
47785;BME280;35233;55.686;37.848;2022-09-21T08:11:16;99774.78;;;17.92;54.71
47785;BME280;35233;55.686;37.848;2022-09-21T08:13:41;99784.75;;;17.88;55.02
47785;BME280;35233;55.686;37.848;2022-09-21T08:16:07;99782.88;;;17.91;54.93
47785;BME280;35233;55.686;37.848;2022-09-21T08:18:36;99767.69;;;17.91;54.85
47785;BME280;35233;55.686;37.848;2022-09-21T08:21:02;99775.19;;;18.00;54.69
47785;BME280;35233;55.686;37.848;2022-09-21T08:23:28;99784.84;;;18.03;54.80
47785;BME280;35233;55.686;37.848;2022-09-21T08:26:02;99779.06;;;18.10;54.63
47785;BME280;35233;55.686;37.848;2022-09-21T08:28:30;99783.88;;;18.20;54.40
47785;BME280;35233;55.686;37.848;2022-09-21T08:30:59;99774.13;;;18.19;54.31
47785;BME280;35233;55.686;37.848;2022-09-21T08:33:25;99782.06;;;18.20;54.40
47785;BME280;35233;55.686;37.848;2022-09-21T08:35:56;99769.72;;;18.18;54.55
47785;BME280;35233;55.686;37.848;2022-09-21T08:38:22;99767.41;;;18.12;54.53
47785;BME280;35233;55.686;37.848;2022-09-21T08:40:49;99762.25;;;18.08;54.65
47785;BME280;35233;55.686;37.848;2022-09-21T08:45:46;99756.47;;;18.16;54.68
47785;BME280;35233;55.686;37.848;2022-09-21T08:48:23;99757.44;;;18.29;54.40
47785;BME280;35233;55.686;37.848;2022-09-21T08:50:56;99754.94;;;18.42;54.24
47785;BME280;35233;55.686;37.848;2022-09-21T08:53:33;99743.81;;;18.64;53.68
47785;BME280;35233;55.686;37.848;2022-09-21T08:55:59;99746.53;;;18.78;53.43
47785;BME280;35233;55.686;37.848;2022-09-21T08:58:27;99743.41;;;18.86;53.08
47785;BME280;35233;55.686;37.848;2022-09-21T09:18:20;99722.56;;;18.77;53.29
47785;BME280;35233;55.686;37.848;2022-09-21T09:20:54;99734.31;;;18.74;53.47
47785;BME280;35233;55.686;37.848;2022-09-21T09:23:22;99738.81;;;18.74;53.62
47785;BME280;35233;55.686;37.848;2022-09-21T09:25:50;99740.63;;;18.73;53.77
47785;BME280;35233;55.686;37.848;2022-09-21T09:30:59;99736.16;;;18.88;53.39
47785;BME280;35233;55.686;37.848;2022-09-21T09:36:13;99732.97;;;18.96;53.33
47785;BME280;35233;55.686;37.848;2022-09-21T09:39:04;99726.00;;;19.08;52.91
47785;BME280;35233;55.686;37.848;2022-09-21T09:41:52;99723.53;;;19.19;52.65
47785;BME280;35233;55.686;37.848;2022-09-21T09:50:33;99726.59;;;19.27;52.61
47785;BME280;35233;55.686;37.848;2022-09-21T09:53:08;99724.88;;;19.26;52.55
47785;BME280;35233;55.686;37.848;2022-09-21T09:55:37;99725.28;;;19.20;52.83
47785;BME280;35233;55.686;37.848;2022-09-21T09:58:05;99727.16;;;19.18;52.67
47785;BME280;35233;55.686;37.848;2022-09-21T10:00:31;99723.84;;;19.14;52.93
47785;BME280;35233;55.686;37.848;2022-09-21T10:02:57;99718.66;;;19.11;53.00
47785;BME280;35233;55.686;37.848;2022-09-21T10:07:54;99722.09;;;19.13;52.98
47785;BME280;35233;55.686;37.848;2022-09-21T10:10:21;99723.72;;;19.16;53.12
47785;BME280;35233;55.686;37.848;2022-09-21T10:12:47;99718.16;;;19.19;53.00
47785;BME280;35233;55.686;37.848;2022-09-21T10:15:15;99707.06;;;19.11;53.10
47785;BME280;35233;55.686;37.848;2022-09-21T10:17:44;99713.50;;;19.08;53.33
47785;BME280;35233;55.686;37.848;2022-09-21T10:20:16;99711.88;;;19.06;53.33
47785;BME280;35233;55.686;37.848;2022-09-21T10:22:47;99711.28;;;19.00;53.36
47785;BME280;35233;55.686;37.848;2022-09-21T10:25:18;99713.78;;;19.04;53.28
47785;BME280;35233;55.686;37.848;2022-09-21T10:27:48;99718.09;;;19.06;53.25
47785;BME280;35233;55.686;37.848;2022-09-21T10:30:31;99716.19;;;19.08;53.41
47785;BME280;35233;55.686;37.848;2022-09-21T10:32:58;99706.53;;;19.06;53.38
47785;BME280;35233;55.686;37.848;2022-09-21T10:35:24;99708.81;;;19.12;53.22
47785;BME280;35233;55.686;37.848;2022-09-21T10:38:09;99717.03;;;19.23;53.19
47785;BME280;35233;55.686;37.848;2022-09-21T10:40:37;99714.56;;;19.20;53.13
47785;BME280;35233;55.686;37.848;2022-09-21T10:43:03;99705.75;;;19.18;53.42
47785;BME280;35233;55.686;37.848;2022-09-21T10:45:31;99710.31;;;19.16;53.32
47785;BME280;35233;55.686;37.848;2022-09-21T10:50:44;99705.75;;;19.18;53.41
47785;BME280;35233;55.686;37.848;2022-09-21T10:53:11;99707.19;;;19.23;53.04
47785;BME280;35233;55.686;37.848;2022-09-21T10:55:43;99702.03;;;19.20;53.30
47785;BME280;35233;55.686;37.848;2022-09-21T10:58:10;99708.31;;;19.19;53.01
47785;BME280;35233;55.686;37.848;2022-09-21T11:00:48;99699.34;;;19.20;53.02
47785;BME280;35233;55.686;37.848;2022-09-21T11:08:44;99704.19;;;19.28;53.11
47785;BME280;35233;55.686;37.848;2022-09-21T11:13:56;99696.84;;;19.17;53.17
47785;BME280;35233;55.686;37.848;2022-09-21T11:16:32;99697.91;;;19.15;53.33
47785;BME280;35233;55.686;37.848;2022-09-21T11:19:08;99709.56;;;19.14;53.29
47785;BME280;35233;55.686;37.848;2022-09-21T11:21:46;99701.06;;;19.07;53.39
47785;BME280;35233;55.686;37.848;2022-09-21T11:24:27;99703.06;;;19.04;53.31
47785;BME280;35233;55.686;37.848;2022-09-21T11:27:07;99696.88;;;19.03;53.44
47785;BME280;35233;55.686;37.848;2022-09-21T11:29:45;99689.97;;;18.99;53.73
47785;BME280;35233;55.686;37.848;2022-09-21T11:32:41;99691.00;;;18.96;53.66
47785;BME280;35233;55.686;37.848;2022-09-21T11:38:33;99680.28;;;18.96;53.60
47785;BME280;35233;55.686;37.848;2022-09-21T11:50:07;99685.19;;;18.90;53.81
47785;BME280;35233;55.686;37.848;2022-09-21T11:57:42;99683.34;;;18.76;54.19
47785;BME280;35233;55.686;37.848;2022-09-21T12:05:47;99683.22;;;18.63;54.49
47785;BME280;35233;55.686;37.848;2022-09-21T12:19:06;99673.69;;;18.59;54.26
47785;BME280;35233;55.686;37.848;2022-09-21T12:21:36;99670.50;;;18.52;54.32
47785;BME280;35233;55.686;37.848;2022-09-21T12:24:11;99676.03;;;18.49;54.79
47785;BME280;35233;55.686;37.848;2022-09-21T12:26:39;99672.41;;;18.50;54.54
47785;BME280;35233;55.686;37.848;2022-09-21T12:29:26;99675.28;;;18.47;54.63
47785;BME280;35233;55.686;37.848;2022-09-21T12:32:04;99670.19;;;18.43;54.61
47785;BME280;35233;55.686;37.848;2022-09-21T12:34:44;99675.53;;;18.43;54.58
47785;BME280;35233;55.686;37.848;2022-09-21T12:37:38;99676.59;;;18.40;54.89
47785;BME280;35233;55.686;37.848;2022-09-21T12:40:05;99669.91;;;18.33;55.10
47785;BME280;35233;55.686;37.848;2022-09-21T12:42:43;99673.13;;;18.38;54.80
47785;BME280;35233;55.686;37.848;2022-09-21T12:45:45;99669.53;;;18.39;54.91
47785;BME280;35233;55.686;37.848;2022-09-21T12:50:49;99671.25;;;18.40;54.77
47785;BME280;35233;55.686;37.848;2022-09-21T12:53:22;99674.78;;;18.41;54.77
47785;BME280;35233;55.686;37.848;2022-09-21T12:56:04;99669.16;;;18.45;54.74
47785;BME280;35233;55.686;37.848;2022-09-21T13:01:39;99668.84;;;18.50;54.65
47785;BME280;35233;55.686;37.848;2022-09-21T13:09:54;99663.81;;;18.60;54.44
47785;BME280;35233;55.686;37.848;2022-09-21T13:12:24;99664.59;;;18.62;54.18
47785;BME280;35233;55.686;37.848;2022-09-21T13:15:00;99658.88;;;18.68;53.84
47785;BME280;35233;55.686;37.848;2022-09-21T13:17:29;99658.69;;;18.71;53.77
47785;BME280;35233;55.686;37.848;2022-09-21T13:20:14;99649.03;;;18.68;54.00
47785;BME280;35233;55.686;37.848;2022-09-21T13:22:41;99654.56;;;18.65;54.04
47785;BME280;35233;55.686;37.848;2022-09-21T13:30:47;99662.38;;;18.54;54.33
47785;BME280;35233;55.686;37.848;2022-09-21T13:51:49;99656.91;;;18.41;54.88
47785;BME280;35233;55.686;37.848;2022-09-21T13:54:16;99638.47;;;18.37;54.78
47785;BME280;35233;55.686;37.848;2022-09-21T13:56:45;99655.13;;;18.42;54.89
47785;BME280;35233;55.686;37.848;2022-09-21T13:59:23;99648.72;;;18.44;54.59
47785;BME280;35233;55.686;37.848;2022-09-21T14:01:51;99646.31;;;18.40;54.65
47785;BME280;35233;55.686;37.848;2022-09-21T14:04:26;99646.31;;;18.40;54.80
47785;BME280;35233;55.686;37.848;2022-09-21T14:06:53;99650.69;;;18.41;54.64
47785;BME280;35233;55.686;37.848;2022-09-21T14:09:27;99648.31;;;18.36;54.87
47785;BME280;35233;55.686;37.848;2022-09-21T14:12:05;99653.94;;;18.31;54.94
47785;BME280;35233;55.686;37.848;2022-09-21T14:14:35;99656.91;;;18.27;55.11
47785;BME280;35233;55.686;37.848;2022-09-21T14:17:03;99652.41;;;18.27;55.10
47785;BME280;35233;55.686;37.848;2022-09-21T14:27:26;99660.97;;;18.18;55.22
47785;BME280;35233;55.686;37.848;2022-09-21T14:30:17;99658.56;;;18.14;55.35
47785;BME280;35233;55.686;37.848;2022-09-21T14:32:52;99654.19;;;18.13;55.45
47785;BME280;35233;55.686;37.848;2022-09-21T14:35:43;99654.56;;;18.06;55.41
47785;BME280;35233;55.686;37.848;2022-09-21T14:38:20;99656.16;;;18.09;55.53
47785;BME280;35233;55.686;37.848;2022-09-21T14:40:49;99656.44;;;18.04;55.60
47785;BME280;35233;55.686;37.848;2022-09-21T14:43:28;99653.19;;;17.99;55.76
47785;BME280;35233;55.686;37.848;2022-09-21T14:49:04;99655.25;;;17.94;55.87
47785;BME280;35233;55.686;37.848;2022-09-21T14:57:17;99662.69;;;17.89;55.92
47785;BME280;35233;55.686;37.848;2022-09-21T15:00:22;99659.50;;;17.82;56.15
47785;BME280;35233;55.686;37.848;2022-09-21T15:05:40;99663.22;;;17.80;56.22
47785;BME280;35233;55.686;37.848;2022-09-21T15:11:23;99667.84;;;17.76;56.35
47785;BME280;35233;55.686;37.848;2022-09-21T15:13:52;99668.88;;;17.74;56.27
47785;BME280;35233;55.686;37.848;2022-09-21T15:16:41;99665.72;;;17.67;56.59
47785;BME280;35233;55.686;37.848;2022-09-21T15:19:23;99666.66;;;17.66;56.62
47785;BME280;35233;55.686;37.848;2022-09-21T15:21:52;99660.63;;;17.62;56.61
47785;BME280;35233;55.686;37.848;2022-09-21T15:24:26;99660.91;;;17.58;56.66
47785;BME280;35233;55.686;37.848;2022-09-21T15:27:04;99677.94;;;17.55;56.95
47785;BME280;35233;55.686;37.848;2022-09-21T15:29:32;99673.75;;;17.51;56.93
47785;BME280;35233;55.686;37.848;2022-09-21T15:31:59;99672.00;;;17.50;57.10
47785;BME280;35233;55.686;37.848;2022-09-21T15:34:25;99665.97;;;17.47;57.24
47785;BME280;35233;55.686;37.848;2022-09-21T15:36:52;99662.53;;;17.45;57.10
47785;BME280;35233;55.686;37.848;2022-09-21T15:39:24;99668.91;;;17.42;57.27
47785;BME280;35233;55.686;37.848;2022-09-21T15:42:17;99671.38;;;17.45;57.19
47785;BME280;35233;55.686;37.848;2022-09-21T15:44:45;99674.06;;;17.45;57.21
47785;BME280;35233;55.686;37.848;2022-09-21T15:47:14;99673.31;;;17.43;57.25
47785;BME280;35233;55.686;37.848;2022-09-21T15:49:41;99670.63;;;17.43;57.36
47785;BME280;35233;55.686;37.848;2022-09-21T15:52:17;99675.97;;;17.43;57.42
47785;BME280;35233;55.686;37.848;2022-09-21T15:54:54;99679.69;;;17.40;57.49
47785;BME280;35233;55.686;37.848;2022-09-21T15:57:37;99676.22;;;17.38;57.54
47785;BME280;35233;55.686;37.848;2022-09-21T16:00:28;99686.84;;;17.40;57.57
47785;BME280;35233;55.686;37.848;2022-09-21T16:03:18;99691.47;;;17.36;57.73
47785;BME280;35233;55.686;37.848;2022-09-21T16:05:47;99700.38;;;17.37;57.75